Yvonne K. — PBLX — position and weather

sailwx.info

Track history (hours):
 
Tides and Currents Weather Stations Pressure Air Temp Water Temp Dewpoint Dewpoint Depression Visibility Wind Speed Wind Dir Waves Ship Positions

Yvonne K.

Last reported at 2016-Dec-03 22:11 UTC. Time now 2016-Dec-04 04:02 UTC.
Position N 51°30' E 002°16'.

Length 90 m; draft 5.4 m.

Type: Cargo ship. MMSI: 244948000.

Date/timePositionNaut miles runAvg speedWind from/ knotsBaromVisibWave heightAir tempDewpointWater temp
2016-Dec-03 22:11N 51°30' E 002°16'5 6.8
2016-Dec-03 21:30N 51°26' E 002°13'6 6.7
2016-Dec-03 20:33N 51°20' E 002°08'7 7.4
2016-Dec-03 19:33N 51°14' E 002°02'8 7.5
2016-Dec-03 18:33N 51°10' E 001°53'8 8.0
2016-Dec-03 17:33N 51°04' E 001°44'9 8.9
2016-Dec-03 16:33N 50°57' E 001°34'122 8.2
2016-Dec-03 01:33N 50°04' W 001°19'8 8.2
2016-Dec-03 00:33N 50°02' W 001°31'10 9.7
2016-Dec-02 23:34N 49°59' W 001°46'1010.1
2016-Dec-02 22:33N 49°57' W 002°01'138 8.6
2016-Dec-02 06:33N 48°55' W 005°12'39 9.8
2016-Dec-02 02:33N 48°26' W 005°51'67 8.3
2016-Dec-01 18:33N 47°27' W 006°37'9 9.0
2016-Dec-01 17:33N 47°19' W 006°43'  
2016-Nov-29 05:05N 39°25' W 009°43'5 9.7
2016-Nov-29 04:33N 39°20' W 009°43'10 9.7
2016-Nov-29 03:34N 39°10' W 009°43'9 9.4
2016-Nov-29 02:33N 39°01' W 009°43'9 9.3
2016-Nov-29 01:33N 38°52' W 009°42'9 9.5
2016-Nov-29 00:33N 38°42' W 009°41'8 7.8
2016-Nov-28 23:33N 38°38' W 009°33'9 9.1
2016-Nov-28 22:32N 38°39' W 009°21'8 8.3
2016-Nov-28 21:32N 38°41' W 009°11'1 1.2
2016-Nov-28 20:32N 38°42' W 009°09'0 0.0
2016-Nov-28 18:32N 38°42' W 009°09'2 2.2
2016-Nov-28 17:33N 38°41' W 009°12'6 6.3
2016-Nov-28 16:33N 38°39' W 009°20'7 6.8
2016-Nov-28 15:33N 38°35' W 009°26'9 8.7
2016-Nov-28 14:33N 38°26' W 009°28'9 9.2
2016-Nov-28 13:33N 38°17' W 009°30'18 9.0
2016-Nov-28 11:33N 37°59' W 009°34'0 0.5
2016-Nov-28 10:29N 37°59' W 009°34'1 1.1
2016-Nov-28 09:33N 37°59' W 009°35'1 0.9
2016-Nov-28 08:32N 37°59' W 009°37'236 5.4
2016-Nov-26 12:25N 35°58' W 005°23'5 5.2
2016-Nov-26 11:31N 35°54' W 005°19'0 0.0
2016-Nov-26 10:28N 35°54' W 005°19'0 0.0
2016-Nov-26 09:31N 35°54' W 005°19'1 1.0
2016-Nov-26 08:33N 35°55' W 005°18'133 6.2
2016-Nov-25 11:14N 36°31' W 002°40'6 8.3
2016-Nov-25 10:33N 36°30' W 002°33'  
Track history (hours):
 
Tides and Currents Weather Stations Pressure Air Temp Water Temp Dewpoint Dewpoint Depression Visibility Wind Speed Wind Dir Waves Ship Positions

Yvonne K.

Last reported at 2016-Dec-03 22:11 UTC. Time now 2016-Dec-04 04:02 UTC.
Position N 51°30' E 002°16'.

Length 90 m; draft 5.4 m.

Type: Cargo ship. MMSI: 244948000.

Date/timePositionNaut miles runAvg speedWind from/ knotsBaromVisibWave heightAir tempDewpointWater temp
2016-Dec-03 22:11N 51°30' E 002°16'5 6.8
2016-Dec-03 21:30N 51°26' E 002°13'6 6.7
2016-Dec-03 20:33N 51°20' E 002°08'7 7.4
2016-Dec-03 19:33N 51°14' E 002°02'8 7.5
2016-Dec-03 18:33N 51°10' E 001°53'8 8.0
2016-Dec-03 17:33N 51°04' E 001°44'9 8.9
2016-Dec-03 16:33N 50°57' E 001°34'122 8.2
2016-Dec-03 01:33N 50°04' W 001°19'8 8.2
2016-Dec-03 00:33N 50°02' W 001°31'10 9.7
2016-Dec-02 23:34N 49°59' W 001°46'1010.1
2016-Dec-02 22:33N 49°57' W 002°01'138 8.6
2016-Dec-02 06:33N 48°55' W 005°12'39 9.8
2016-Dec-02 02:33N 48°26' W 005°51'67 8.3
2016-Dec-01 18:33N 47°27' W 006°37'9 9.0
2016-Dec-01 17:33N 47°19' W 006°43'  
2016-Nov-29 05:05N 39°25' W 009°43'5 9.7
2016-Nov-29 04:33N 39°20' W 009°43'10 9.7
2016-Nov-29 03:34N 39°10' W 009°43'9 9.4
2016-Nov-29 02:33N 39°01' W 009°43'9 9.3
2016-Nov-29 01:33N 38°52' W 009°42'9 9.5
2016-Nov-29 00:33N 38°42' W 009°41'8 7.8
2016-Nov-28 23:33N 38°38' W 009°33'9 9.1
2016-Nov-28 22:32N 38°39' W 009°21'8 8.3
2016-Nov-28 21:32N 38°41' W 009°11'1 1.2
2016-Nov-28 20:32N 38°42' W 009°09'0 0.0
2016-Nov-28 18:32N 38°42' W 009°09'2 2.2
2016-Nov-28 17:33N 38°41' W 009°12'6 6.3
2016-Nov-28 16:33N 38°39' W 009°20'7 6.8
2016-Nov-28 15:33N 38°35' W 009°26'9 8.7
2016-Nov-28 14:33N 38°26' W 009°28'9 9.2
2016-Nov-28 13:33N 38°17' W 009°30'18 9.0
2016-Nov-28 11:33N 37°59' W 009°34'0 0.5
2016-Nov-28 10:29N 37°59' W 009°34'1 1.1
2016-Nov-28 09:33N 37°59' W 009°35'1 0.9
2016-Nov-28 08:32N 37°59' W 009°37'236 5.4
2016-Nov-26 12:25N 35°58' W 005°23'5 5.2
2016-Nov-26 11:31N 35°54' W 005°19'0 0.0
2016-Nov-26 10:28N 35°54' W 005°19'0 0.0
2016-Nov-26 09:31N 35°54' W 005°19'1 1.0
2016-Nov-26 08:33N 35°55' W 005°18'133 6.2
2016-Nov-25 11:14N 36°31' W 002°40'6 8.3
2016-Nov-25 10:33N 36°30' W 002°33'  

Dump ship's entire track history